createdAt,value
2023-06-15T05:22:58.898Z,96814.13
2023-06-15T05:25:01.681Z,96814.94
2023-06-15T05:27:04.626Z,96827.31
2023-06-15T05:29:07.871Z,96820.75
2023-06-15T05:31:10.893Z,96827.97
2023-06-15T05:33:13.888Z,96822.25
2023-06-15T05:35:17.034Z,96831.38
2023-06-15T05:37:20.060Z,96831.81
2023-06-15T05:39:25.663Z,96833.34
2023-06-15T05:41:28.710Z,96837.53
2023-06-15T05:43:31.651Z,96836.31
2023-06-15T05:45:34.496Z,96847.00
2023-06-15T05:47:37.538Z,96843.16
2023-06-15T05:49:40.397Z,96843.06
2023-06-15T05:51:43.212Z,96851.06
2023-06-15T05:53:46.140Z,96845.00
2023-06-15T05:55:50.405Z,96843.78
2023-06-15T05:57:54.689Z,96849.09
2023-06-15T05:59:57.624Z,96852.50
2023-06-15T06:02:00.640Z,96856.78
2023-06-15T06:04:03.447Z,96852.38
2023-06-15T06:06:06.566Z,96842.00
2023-06-15T06:08:09.420Z,96846.56
2023-06-15T06:10:12.174Z,96848.41
2023-06-15T06:12:16.521Z,96841.59
2023-06-15T06:14:19.471Z,96844.81
2023-06-15T06:16:22.354Z,96849.13
2023-06-15T06:18:25.296Z,96851.28
2023-06-15T06:20:28.164Z,96848.50
2023-06-15T06:22:31.720Z,96857.34
2023-06-15T06:24:34.578Z,96851.66
2023-06-15T06:26:37.837Z,96857.59
2023-06-15T06:28:42.329Z,96853.78
2023-06-15T06:30:45.219Z,96845.94
2023-06-15T06:32:48.410Z,96853.56
2023-06-15T06:34:51.583Z,96842.47
2023-06-15T06:36:54.824Z,96854.41
2023-06-15T06:39:02.697Z,96854.22
2023-06-15T06:41:06.210Z,96858.31
2023-06-15T06:43:09.153Z,96862.63
2023-06-15T06:45:13.440Z,96855.81
2023-06-15T06:47:16.572Z,96851.19
2023-06-15T06:49:19.456Z,96857.72
2023-06-15T06:51:22.463Z,96864.75
2023-06-15T06:53:26.679Z,96870.69
2023-06-15T06:55:29.589Z,96861.97
2023-06-15T06:57:32.566Z,96854.38
2023-06-15T06:59:43.159Z,96864.41
2023-06-15T07:01:48.514Z,96866.56
2023-06-15T07:03:51.659Z,96870.97
2023-06-15T07:05:54.656Z,96862.63
2023-06-15T07:07:57.741Z,96864.03
2023-06-15T07:10:00.646Z,96861.56
2023-06-15T07:12:04.220Z,96857.25
2023-06-15T07:14:07.258Z,96856.25
2023-06-15T07:16:10.203Z,96869.81
2023-06-15T07:18:15.619Z,96868.00
2023-06-15T07:20:18.742Z,96870.50
2023-06-15T07:22:22.793Z,96870.25
2023-06-15T07:24:25.912Z,96871.41
2023-06-15T07:26:28.841Z,96873.09
2023-06-15T07:28:31.716Z,96872.81
2023-06-15T07:30:35.133Z,96869.59
2023-06-15T07:32:38.200Z,96874.19
2023-06-15T07:34:44.914Z,96875.59
2023-06-15T07:36:47.739Z,96870.75
2023-06-15T07:38:50.634Z,96875.63
2023-06-15T07:40:53.662Z,96864.28
2023-06-15T07:42:56.738Z,96871.09
2023-06-15T07:44:59.916Z,96872.22
2023-06-15T07:47:02.581Z,96864.16
2023-06-15T07:49:05.688Z,96866.09
2023-06-15T07:51:17.961Z,96861.25
2023-06-15T07:53:27.932Z,96866.69
2023-06-15T07:55:31.828Z,96871.06
2023-06-15T07:57:36.769Z,96867.84
2023-06-15T07:59:39.606Z,96870.78
2023-06-15T08:01:42.492Z,96875.16
2023-06-15T08:03:45.528Z,96875.94
2023-06-15T08:05:48.574Z,96873.25
2023-06-15T08:07:52.797Z,96872.44
2023-06-15T08:09:55.699Z,96870.00
2023-06-15T08:11:58.616Z,96866.78
2023-06-15T08:14:01.624Z,96869.75
2023-06-15T08:16:04.868Z,96877.13
2023-06-15T08:18:07.957Z,96865.50
2023-06-15T08:20:12.181Z,96869.03
2023-06-15T08:22:15.685Z,96870.91
2023-06-15T08:24:20.140Z,96866.84
2023-06-15T08:26:23.892Z,96864.94
2023-06-15T08:28:26.891Z,96870.84
2023-06-15T08:30:30.057Z,96870.56
2023-06-15T08:32:33.210Z,96870.06
2023-06-15T08:34:36.215Z,96874.16
2023-06-15T08:36:39.060Z,96870.66
2023-06-15T08:38:42.045Z,96874.22
2023-06-15T08:40:47.712Z,96873.94
2023-06-15T08:42:52.233Z,96878.78
2023-06-15T08:44:56.203Z,96873.06
2023-06-15T08:47:00.054Z,96872.28
2023-06-15T08:49:04.551Z,96873.06
2023-06-15T08:51:09.744Z,96872.28
2023-06-15T08:53:15.159Z,96867.41
2023-06-15T08:55:19.920Z,96876.03
2023-06-15T08:57:24.219Z,96872.25
2023-06-15T08:59:27.406Z,96871.97
2023-06-15T09:01:33.726Z,96876.56
2023-06-15T09:03:37.615Z,96871.97
2023-06-15T09:05:40.662Z,96875.75
2023-06-15T09:07:43.589Z,96871.97
2023-06-15T09:10:14.347Z,96872.75
2023-06-15T09:12:20.880Z,96868.97
2023-06-15T09:14:26.239Z,96871.72
2023-06-15T09:16:34.004Z,96871.19
2023-06-15T09:18:47.176Z,96874.66
2023-06-15T09:20:50.524Z,96865.97
2023-06-15T09:22:54.576Z,96868.38
2023-06-15T09:24:57.470Z,96867.03
2023-06-15T09:27:00.332Z,96864.84
2023-06-15T09:29:04.095Z,96869.44
2023-06-15T09:31:08.490Z,96863.47
2023-06-15T09:33:14.204Z,96861.56
2023-06-15T09:35:17.774Z,96872.09
2023-06-15T09:37:20.703Z,96863.47
2023-06-15T09:39:25.049Z,96866.69
2023-06-15T09:41:28.344Z,96868.81
2023-06-15T09:43:34.923Z,96869.56
2023-06-15T09:45:38.471Z,96874.19
2023-06-15T09:47:43.032Z,96873.59
2023-06-15T09:49:47.032Z,96873.59
2023-06-15T09:51:51.970Z,96873.03
2023-06-15T09:53:55.447Z,96870.56
2023-06-15T09:56:00.711Z,96867.78
2023-06-15T09:58:04.317Z,96865.34
2023-06-15T10:00:09.343Z,96867.47
2023-06-15T10:02:13.858Z,96868.56
2023-06-15T10:04:20.649Z,96869.91
2023-06-15T10:06:26.395Z,96867.22
2023-06-15T10:08:33.062Z,96872.91
2023-06-15T10:10:38.001Z,96869.13
2023-06-15T10:12:44.338Z,96866.94
2023-06-15T10:14:51.904Z,96865.28
2023-06-15T10:17:01.361Z,96863.66
2023-06-15T10:19:07.911Z,96867.41
2023-06-15T10:21:16.045Z,96865.22
2023-06-15T10:23:36.624Z,96861.97
2023-06-15T10:25:45.182Z,96859.78
2023-06-15T10:27:49.550Z,96865.69
2023-06-15T10:30:02.607Z,96868.13
2023-06-15T10:32:14.649Z,96866.16
2023-06-15T10:34:25.925Z,96852.84
2023-06-15T10:36:32.124Z,96864.94
2023-06-15T10:38:43.237Z,96864.06
2023-06-15T10:40:49.960Z,96858.88
2023-06-15T10:42:53.916Z,96864.28
2023-06-15T10:45:00.424Z,96861.06
2023-06-15T10:47:10.574Z,96863.47
2023-06-15T10:49:13.772Z,96860.22
2023-06-15T10:51:16.986Z,96853.91
2023-06-15T10:53:26.178Z,96860.94
2023-06-15T10:55:29.915Z,96858.75
2023-06-15T10:57:37.366Z,96853.84
2023-06-15T10:59:43.464Z,96849.75
2023-06-15T11:01:46.401Z,96858.09
2023-06-15T11:03:49.408Z,96856.19
2023-06-15T11:06:02.943Z,96851.56
2023-06-15T11:08:18.831Z,96863.00
2023-06-15T11:10:28.781Z,96854.38
2023-06-15T11:12:35.064Z,96851.13
2023-06-15T11:14:38.042Z,96856.53
2023-06-15T11:16:41.222Z,96865.22
2023-06-15T11:19:13.732Z,96855.97
2023-06-15T11:21:26.675Z,96859.19
2023-06-15T11:23:33.952Z,96850.47
2023-06-15T11:25:38.414Z,96846.38
2023-06-15T11:27:43.800Z,96847.72
2023-06-15T11:29:47.225Z,96849.03
2023-06-15T11:31:50.384Z,96843.81
2023-06-15T11:33:53.348Z,96844.91
2023-06-15T11:35:56.484Z,96845.31
2023-06-15T11:38:00.124Z,96843.63
2023-06-15T11:40:14.418Z,96841.94
2023-06-15T11:42:18.830Z,96841.84
2023-06-15T11:44:23.146Z,96839.38
2023-06-15T11:46:28.583Z,96831.47
2023-06-15T11:48:32.697Z,96830.84
2023-06-15T11:50:36.101Z,96825.13
2023-06-15T11:52:44.245Z,96835.69
2023-06-15T11:54:53.335Z,96831.59
2023-06-15T11:56:58.439Z,96837.03
2023-06-15T11:59:02.917Z,96835.41
2023-06-15T12:01:06.143Z,96832.97
2023-06-15T12:03:13.600Z,96831.34
2023-06-15T12:05:18.373Z,96831.91
2023-06-15T12:07:32.616Z,96825.38
2023-06-15T12:09:39.681Z,96826.97
2023-06-15T12:11:42.726Z,96823.16
2023-06-15T12:13:46.150Z,96817.94
2023-06-15T12:15:53.489Z,96820.34
2023-06-15T12:17:57.261Z,96812.22
2023-06-15T12:20:06.816Z,96817.34
2023-06-15T12:22:09.917Z,96817.06
2023-06-15T12:24:16.697Z,96812.16
2023-06-15T12:26:21.180Z,96815.66
2023-06-15T12:28:25.030Z,96814.34
2023-06-15T12:30:28.114Z,96813.03
2023-06-15T12:32:33.116Z,96812.50
2023-06-15T12:34:42.106Z,96817.44
2023-06-15T12:36:45.255Z,96809.91
2023-06-15T12:38:51.273Z,96822.34
2023-06-15T12:40:54.971Z,96812.91
2023-06-15T12:42:59.378Z,96814.53
2023-06-15T12:45:02.468Z,96800.66
2023-06-15T12:47:05.941Z,96802.56
2023-06-15T12:49:11.790Z,96799.25
2023-06-15T12:51:14.843Z,96805.69
2023-06-15T12:53:18.138Z,96800.78
2023-06-15T12:55:21.352Z,96802.41
2023-06-15T12:57:24.435Z,96817.28
2023-06-15T12:59:27.362Z,96802.91
2023-06-15T13:01:30.673Z,96809.13
2023-06-15T13:03:33.852Z,96809.63
2023-06-15T13:05:39.101Z,96806.72
2023-06-15T13:07:42.152Z,96801.28
2023-06-15T13:09:45.279Z,96797.47
2023-06-15T13:11:48.964Z,96796.06
2023-06-15T13:13:52.150Z,96798.19
2023-06-15T13:15:55.174Z,96803.31
2023-06-15T13:17:58.588Z,96797.31
2023-06-15T13:20:01.580Z,96791.88
2023-06-15T13:22:06.304Z,96796.69
2023-06-15T13:24:09.209Z,96793.72
2023-06-15T13:26:12.211Z,96789.91
2023-06-15T13:28:14.988Z,96787.69
2023-06-15T13:30:18.564Z,96779.03
2023-06-15T13:32:22.383Z,96788.50
2023-06-15T13:34:25.507Z,96790.13
2023-06-15T13:36:28.309Z,96783.88
2023-06-15T13:38:32.620Z,96788.22
2023-06-15T13:40:36.055Z,96791.13
2023-06-15T13:42:40.228Z,96783.50
2023-06-15T13:44:43.261Z,96780.97
2023-06-15T13:46:46.410Z,96783.59
2023-06-15T13:48:49.390Z,96791.13
2023-06-15T13:50:52.370Z,96790.03
2023-06-15T13:52:55.235Z,96790.03
2023-06-15T13:54:59.539Z,96782.69
2023-06-15T13:57:02.732Z,96781.69
2023-06-15T13:59:05.748Z,96786.31
2023-06-15T14:01:08.709Z,96783.91
2023-06-15T14:03:11.783Z,96785.50
2023-06-15T14:05:15.242Z,96781.19
2023-06-15T14:07:18.892Z,96786.63
2023-06-15T14:09:21.809Z,96780.09
2023-06-15T14:11:26.755Z,96777.06
2023-06-15T14:13:29.914Z,96778.69
2023-06-15T14:15:33.129Z,96778.06
2023-06-15T14:17:36.014Z,96782.13
2023-06-15T14:19:39.368Z,96781.50
2023-06-15T14:21:42.356Z,96781.19
2023-06-15T14:23:45.675Z,96781.50
2023-06-15T14:25:49.933Z,96790.94
2023-06-15T14:27:54.468Z,96787.94
2023-06-15T14:29:57.535Z,96786.63
2023-06-15T14:32:00.504Z,96789.66
2023-06-15T14:34:03.422Z,96786.44
2023-06-15T14:36:07.057Z,96788.34
2023-06-15T14:38:09.963Z,96792.97
2023-06-15T14:40:13.016Z,96787.53
2023-06-15T14:42:16.367Z,96791.34
2023-06-15T14:44:20.770Z,96791.63
2023-06-15T14:46:23.713Z,96786.50
2023-06-15T14:48:26.653Z,96793.06
2023-06-15T14:50:31.968Z,96792.25
2023-06-15T14:52:35.301Z,96786.31
2023-06-15T14:54:39.032Z,96783.59
2023-06-15T14:56:42.641Z,96784.91
2023-06-15T14:58:45.537Z,96785.72
2023-06-15T15:00:49.686Z,96787.63
2023-06-15T15:02:53.130Z,96781.09
2023-06-15T15:04:56.072Z,96781.38
2023-06-15T15:06:59.103Z,96784.59
2023-06-15T15:09:02.799Z,96773.44
2023-06-15T15:11:05.654Z,96775.84
2023-06-15T15:13:08.997Z,96772.34
2023-06-15T15:15:12.072Z,96768.81
2023-06-15T15:17:16.392Z,96766.41
2023-06-15T15:19:21.224Z,96775.34
2023-06-15T15:21:27.354Z,96764.19
2023-06-15T15:23:30.446Z,96767.44
2023-06-15T15:25:33.322Z,96771.75
2023-06-15T15:27:36.311Z,96770.66
2023-06-15T15:29:39.242Z,96767.94
2023-06-15T15:31:42.433Z,96766.53
2023-06-15T15:33:49.439Z,96772.25
2023-06-15T15:35:52.412Z,96768.75
2023-06-15T15:37:55.219Z,96765.22
2023-06-15T15:39:58.281Z,96768.44
2023-06-15T15:42:01.274Z,96767.63
2023-06-15T15:44:04.178Z,96767.03
2023-06-15T15:46:07.261Z,96763.19
2023-06-15T15:48:10.448Z,96767.22
2023-06-15T15:50:14.906Z,96772.06
2023-06-15T15:52:18.088Z,96769.84
2023-06-15T15:54:21.050Z,96763.59
2023-06-15T15:56:25.170Z,96766.03
2023-06-15T15:58:28.015Z,96758.19
2023-06-15T16:00:31.521Z,96761.69
2023-06-15T16:02:37.794Z,96753.56
2023-06-15T16:04:41.064Z,96757.38
2023-06-15T16:06:45.392Z,96758.78
2023-06-15T16:08:48.386Z,96770.75
2023-06-15T16:10:51.976Z,96768.84
2023-06-15T16:12:54.924Z,96762.09
2023-06-15T16:14:57.888Z,96762.41
2023-06-15T16:17:04.743Z,96759.69
2023-06-15T16:19:08.648Z,96762.69
2023-06-15T16:21:11.963Z,96764.59
2023-06-15T16:23:16.433Z,96758.06
2023-06-15T16:25:19.913Z,96761.91
2023-06-15T16:27:32.513Z,96758.69
2023-06-15T16:29:36.483Z,96748.72
2023-06-15T16:31:41.435Z,96769.03
2023-06-15T16:33:44.944Z,96761.47
2023-06-15T16:35:54.017Z,96764.31
2023-06-15T16:37:57.230Z,96763.19
2023-06-15T16:40:04.955Z,96754.56
2023-06-15T16:42:08.972Z,96763.81
2023-06-15T16:44:11.979Z,96763.00
2023-06-15T16:46:15.507Z,96753.75
2023-06-15T16:48:18.403Z,96758.38
2023-06-15T16:50:21.311Z,96759.97
2023-06-15T16:52:24.097Z,96758.38
2023-06-15T16:54:27.723Z,96763.81
2023-06-15T16:56:32.103Z,96761.91
2023-06-15T16:58:35.073Z,96755.16
2023-06-15T17:00:38.144Z,96762.50
2023-06-15T17:02:41.604Z,96764.41
2023-06-15T17:04:45.593Z,96763.31
2023-06-15T17:06:50.484Z,96773.06
2023-06-15T17:08:54.554Z,96768.75
2023-06-15T17:10:58.446Z,96775.28
2023-06-15T17:13:03.737Z,96773.06
2023-06-15T17:15:08.996Z,96776.88
2023-06-15T17:17:12.017Z,96770.66
2023-06-15T17:19:15.349Z,96778.47
2023-06-15T17:21:18.409Z,96773.84
2023-06-15T17:23:21.464Z,96777.88
2023-06-15T17:25:24.263Z,96775.97
2023-06-15T17:27:27.216Z,96782.19
2023-06-15T17:29:32.015Z,96786.50
2023-06-15T17:31:36.324Z,96778.06
2023-06-15T17:33:40.045Z,96781.00
2023-06-15T17:35:43.365Z,96774.47
2023-06-15T17:37:46.687Z,96778.78
2023-06-15T17:39:49.899Z,96773.06
2023-06-15T17:41:53.244Z,96780.91
2023-06-15T17:43:57.162Z,96784.09
2023-06-15T17:46:01.721Z,96784.09
2023-06-15T17:48:05.409Z,96781.09
2023-06-15T17:50:10.294Z,96781.88
2023-06-15T17:52:13.860Z,96776.47
2023-06-15T17:54:16.964Z,96787.31
2023-06-15T17:56:20.112Z,96781.09
2023-06-15T17:58:23.968Z,96791.16
2023-06-15T18:00:27.146Z,96784.59
2023-06-15T18:02:33.032Z,96783.59
2023-06-15T18:04:37.160Z,96791.56
2023-06-15T18:06:40.323Z,96798.59
2023-06-15T18:08:43.240Z,96797.00
2023-06-15T18:10:46.265Z,96806.25
2023-06-15T18:12:49.599Z,96801.13
2023-06-15T18:14:52.389Z,96803.81
2023-06-15T18:16:55.305Z,96800.81
2023-06-15T18:19:00.771Z,96803.00
2023-06-15T18:21:03.896Z,96800.00
2023-06-15T18:23:08.161Z,96806.25
2023-06-15T18:25:11.819Z,96808.66
2023-06-15T18:27:15.215Z,96807.03
2023-06-15T18:29:21.716Z,96809.25
2023-06-15T18:31:25.428Z,96811.97
2023-06-15T18:33:29.738Z,96806.00
2023-06-15T18:35:34.262Z,96815.25
2023-06-15T18:37:38.724Z,96812.06
2023-06-15T18:39:41.649Z,96815.06
2023-06-15T18:41:45.745Z,96806.72
2023-06-15T18:43:48.517Z,96809.22
2023-06-15T18:45:51.961Z,96813.03
2023-06-15T18:47:56.399Z,96810.63
2023-06-15T18:49:59.440Z,96815.03
2023-06-15T18:52:04.188Z,96813.44
2023-06-15T18:54:07.262Z,96816.97
2023-06-15T18:56:10.634Z,96814.00
2023-06-15T18:58:14.422Z,96817.84
2023-06-15T19:00:21.142Z,96822.16
2023-06-15T19:02:24.930Z,96810.81
2023-06-15T19:04:28.871Z,96819.75
2023-06-15T19:06:32.090Z,96824.94
2023-06-15T19:08:36.369Z,96819.00
2023-06-15T19:10:39.636Z,96817.41
2023-06-15T19:12:43.403Z,96819.09
2023-06-15T19:14:47.491Z,96824.81
2023-06-15T19:16:51.375Z,96826.22
2023-06-15T19:18:54.356Z,96826.22
2023-06-15T19:20:58.784Z,96825.41
2023-06-15T19:23:02.073Z,96826.22
2023-06-15T19:25:07.057Z,96829.22
2023-06-15T19:27:09.973Z,96825.41
2023-06-15T19:29:12.960Z,96828.19
2023-06-15T19:31:16.141Z,96826.28
2023-06-15T19:33:19.519Z,96831.00
2023-06-15T19:35:22.648Z,96829.19
2023-06-15T19:37:26.046Z,96829.75
2023-06-15T19:39:30.810Z,96837.97
2023-06-15T19:41:35.984Z,96841.78
2023-06-15T19:43:40.388Z,96837.47
2023-06-15T19:45:43.842Z,96846.97
2023-06-15T19:47:46.973Z,96844.06
2023-06-15T19:49:49.935Z,96845.97
2023-06-15T19:51:53.055Z,96851.69
2023-06-15T19:53:56.383Z,96850.09
2023-06-15T19:56:04.282Z,96847.38
2023-06-15T19:58:08.846Z,96858.72
2023-06-15T20:00:13.163Z,96861.44
2023-06-15T20:02:16.632Z,96868.97
2023-06-15T20:04:20.660Z,96864.16
2023-06-15T20:06:23.842Z,96872.28
2023-06-15T20:08:29.142Z,96866.34
2023-06-15T20:10:33.076Z,96872.56
2023-06-15T20:12:37.082Z,96873.97
2023-06-15T20:14:41.800Z,96880.50
2023-06-15T20:16:45.434Z,96881.31
2023-06-15T20:18:50.609Z,96880.50
2023-06-15T20:20:54.106Z,96878.84
2023-06-15T20:22:57.798Z,96885.16
2023-06-15T20:25:02.744Z,96887.66
2023-06-15T20:27:06.339Z,96887.66
2023-06-15T20:29:10.443Z,96887.16
2023-06-15T20:31:15.479Z,96892.03
2023-06-15T20:33:19.464Z,96886.66
2023-06-15T20:35:23.228Z,96889.88
2023-06-15T20:37:28.836Z,96894.22
2023-06-15T20:39:32.556Z,96893.69
2023-06-15T20:41:36.884Z,96901.84
2023-06-15T20:43:40.232Z,96898.03
2023-06-15T20:45:43.188Z,96905.66
2023-06-15T20:47:47.362Z,96904.03
2023-06-15T20:49:50.643Z,96913.78
2023-06-15T20:51:54.320Z,96905.72
2023-06-15T20:53:57.942Z,96905.19
2023-06-15T20:56:06.616Z,96903.06
2023-06-15T20:58:11.984Z,96904.97
2023-06-15T21:00:16.310Z,96912.81
